createdAt,value
2017-12-20T00:00:32.426Z,87.80
2017-12-20T00:03:00.766Z,87.57
2017-12-20T00:05:29.122Z,87.61
2017-12-20T00:07:57.498Z,87.78
2017-12-20T00:10:25.829Z,87.81
2017-12-20T00:12:54.247Z,87.88
2017-12-20T00:15:22.571Z,87.91
2017-12-20T00:17:51.675Z,87.99
2017-12-20T00:20:20.038Z,88.04
2017-12-20T00:22:49.134Z,88.21
2017-12-20T00:25:18.287Z,88.19
2017-12-20T00:27:46.618Z,88.06
2017-12-20T00:30:14.980Z,88.03
2017-12-20T00:32:44.126Z,87.99
2017-12-20T00:35:13.232Z,87.81
2017-12-20T00:37:41.606Z,87.80
2017-12-20T00:40:09.947Z,87.90
2017-12-20T00:42:38.298Z,87.91
2017-12-20T00:45:06.662Z,87.82
2017-12-20T00:47:35.814Z,87.85
2017-12-20T00:50:04.201Z,87.73
2017-12-20T00:52:32.524Z,87.70
2017-12-20T00:55:00.883Z,87.78
2017-12-20T00:57:29.222Z,87.70
2017-12-20T00:59:57.593Z,87.65
2017-12-20T01:02:25.974Z,87.62
2017-12-20T01:04:54.314Z,87.77
2017-12-20T01:07:22.714Z,87.67
2017-12-20T01:09:51.841Z,87.46
2017-12-20T01:12:20.218Z,87.54
2017-12-20T01:14:48.602Z,87.52
2017-12-20T01:17:16.946Z,87.64
2017-12-20T01:19:45.294Z,87.75
2017-12-20T01:22:13.670Z,87.85
2017-12-20T01:24:42.012Z,87.85
2017-12-20T01:27:11.326Z,87.90
2017-12-20T01:29:39.697Z,87.85
2017-12-20T01:32:08.082Z,88.06
2017-12-20T01:34:36.426Z,88.11
2017-12-20T01:37:04.766Z,87.92
2017-12-20T01:39:33.137Z,87.82
2017-12-20T01:42:01.519Z,87.91
2017-12-20T01:44:29.866Z,87.96
2017-12-20T01:46:58.283Z,87.96
2017-12-20T01:49:26.662Z,87.86
2017-12-20T01:51:55.786Z,87.77
2017-12-20T01:54:24.174Z,87.83
2017-12-20T01:56:52.506Z,87.88
2017-12-20T01:59:20.873Z,87.78
2017-12-20T02:01:49.230Z,87.82
2017-12-20T02:04:17.558Z,88.08
2017-12-20T02:06:46.689Z,88.09
2017-12-20T02:09:15.075Z,88.05
2017-12-20T02:11:43.450Z,87.99
2017-12-20T02:14:11.834Z,88.11
2017-12-20T02:16:40.208Z,87.97
2017-12-20T02:19:08.557Z,87.66
2017-12-20T02:21:36.943Z,87.45
2017-12-20T02:24:05.319Z,87.18
2017-12-20T02:26:33.650Z,87.09
2017-12-20T02:29:02.008Z,87.07
2017-12-20T02:31:30.394Z,87.12
2017-12-20T02:33:58.742Z,87.28
2017-12-20T02:36:27.884Z,87.35
2017-12-20T02:38:56.322Z,87.46
2017-12-20T02:41:24.693Z,87.58
2017-12-20T02:43:53.806Z,87.53
2017-12-20T02:46:22.174Z,87.73
2017-12-20T02:48:50.540Z,87.98
2017-12-20T02:51:18.929Z,88.03
2017-12-20T02:53:47.317Z,88.07
2017-12-20T02:56:15.654Z,87.94
2017-12-20T02:58:44.821Z,88.08
2017-12-20T03:01:13.166Z,88.01
2017-12-20T03:03:41.529Z,87.87
2017-12-20T03:06:09.890Z,87.73
2017-12-20T03:08:38.284Z,87.78
2017-12-20T03:11:06.662Z,88.10
2017-12-20T03:13:35.029Z,88.19
2017-12-20T03:16:04.138Z,88.12
2017-12-20T03:18:32.549Z,88.18
2017-12-20T03:21:00.889Z,88.12
2017-12-20T03:23:29.236Z,88.29
2017-12-20T03:25:57.622Z,88.05
2017-12-20T03:28:26.781Z,88.00
2017-12-20T03:30:55.130Z,87.71
2017-12-20T03:33:23.473Z,87.62
2017-12-20T03:35:52.615Z,87.71
2017-12-20T03:38:20.951Z,87.73
2017-12-20T03:40:50.119Z,87.50
2017-12-20T03:43:18.449Z,87.52
2017-12-20T03:45:46.860Z,87.20
2017-12-20T03:48:15.237Z,86.98
2017-12-20T03:50:43.620Z,87.07
2017-12-20T03:53:11.988Z,86.96
2017-12-20T03:55:40.333Z,86.90
2017-12-20T03:58:08.726Z,86.73
2017-12-20T04:00:37.064Z,86.76
2017-12-20T04:03:06.250Z,86.86
2017-12-20T04:05:34.592Z,86.84
2017-12-20T04:08:02.928Z,86.84
2017-12-20T04:10:31.321Z,87.22
2017-12-20T04:13:00.488Z,87.17
2017-12-20T04:15:29.609Z,87.14
2017-12-20T04:17:57.969Z,87.31
2017-12-20T04:20:27.069Z,87.22
2017-12-20T04:22:55.442Z,87.42
2017-12-20T04:25:23.835Z,87.35
2017-12-20T04:27:52.180Z,87.20
2017-12-20T04:30:20.525Z,87.17
2017-12-20T04:32:48.912Z,87.16
2017-12-20T04:35:17.261Z,87.17
2017-12-20T04:37:45.620Z,87.04
2017-12-20T04:40:13.963Z,86.94
2017-12-20T04:42:42.336Z,86.90
2017-12-20T04:45:10.700Z,86.90
2017-12-20T04:47:39.078Z,86.88
2017-12-20T04:50:07.449Z,87.05
2017-12-20T04:52:35.824Z,86.97
2017-12-20T04:55:04.172Z,86.79
2017-12-20T04:57:32.548Z,86.77
2017-12-20T05:00:00.920Z,86.81
2017-12-20T05:02:29.257Z,86.64
2017-12-20T05:04:57.636Z,86.58
2017-12-20T05:07:25.988Z,86.59
2017-12-20T05:09:54.371Z,86.68
2017-12-20T05:12:22.726Z,86.50
2017-12-20T05:14:51.060Z,86.44
2017-12-20T05:17:19.439Z,86.47
2017-12-20T05:19:47.777Z,86.31
2017-12-20T05:22:16.117Z,86.41
2017-12-20T05:24:44.500Z,85.34
2017-12-20T05:27:12.855Z,84.77
2017-12-20T05:29:42.011Z,85.19
2017-12-20T05:32:10.392Z,85.77
2017-12-20T05:34:38.759Z,85.92
2017-12-20T05:37:07.132Z,85.87
2017-12-20T05:39:35.452Z,85.95
2017-12-20T05:42:03.837Z,86.28
2017-12-20T05:44:32.948Z,86.40
2017-12-20T05:47:01.363Z,86.49
2017-12-20T05:49:29.703Z,86.53
2017-12-20T05:51:58.792Z,86.58
2017-12-20T05:54:27.927Z,86.14
2017-12-20T05:56:56.258Z,86.32
2017-12-20T05:59:25.407Z,86.71
2017-12-20T06:01:53.752Z,86.70
2017-12-20T06:04:22.127Z,86.76
2017-12-20T06:06:51.260Z,86.81
2017-12-20T06:09:19.599Z,86.67
2017-12-20T06:11:47.996Z,86.44
2017-12-20T06:14:16.339Z,86.32
2017-12-20T06:16:44.679Z,86.69
2017-12-20T06:19:13.075Z,86.81
2017-12-20T06:21:41.399Z,86.77
2017-12-20T06:24:10.579Z,87.22
2017-12-20T06:26:38.931Z,87.27
2017-12-20T06:29:07.303Z,87.24
2017-12-20T06:31:36.855Z,86.83
2017-12-20T06:34:05.811Z,86.75
2017-12-20T06:36:34.139Z,86.88
2017-12-20T06:39:02.563Z,86.97
2017-12-20T06:41:30.963Z,87.02
2017-12-20T06:44:00.063Z,87.07
2017-12-20T06:46:29.203Z,87.13
2017-12-20T06:48:57.535Z,87.08
2017-12-20T06:51:26.671Z,87.17
2017-12-20T06:53:55.051Z,86.68
2017-12-20T06:56:23.398Z,87.02
2017-12-20T06:58:52.523Z,87.46
2017-12-20T07:01:20.875Z,87.56
2017-12-20T07:03:49.363Z,87.49
2017-12-20T07:06:17.691Z,87.52
2017-12-20T07:08:46.055Z,87.51
2017-12-20T07:11:14.387Z,87.48
2017-12-20T07:13:42.767Z,87.70
2017-12-20T07:16:11.106Z,88.12
2017-12-20T07:18:39.495Z,88.17
2017-12-20T07:21:08.641Z,88.12
2017-12-20T07:23:36.989Z,88.22
2017-12-20T07:26:05.363Z,88.03
2017-12-20T07:28:34.481Z,87.52
2017-12-20T07:31:02.850Z,87.75
2017-12-20T07:33:31.190Z,87.63
2017-12-20T07:35:59.593Z,87.26
2017-12-20T07:38:28.713Z,87.28
2017-12-20T07:40:57.863Z,87.03
2017-12-20T07:43:26.223Z,86.68
2017-12-20T07:45:54.547Z,86.56
2017-12-20T07:48:22.931Z,86.44
2017-12-20T07:50:51.275Z,86.26
2017-12-20T07:53:19.655Z,86.08
2017-12-20T07:55:47.999Z,85.64
2017-12-20T07:58:16.355Z,85.52
2017-12-20T08:00:44.750Z,85.25
2017-12-20T08:03:13.099Z,85.44
2017-12-20T08:05:41.483Z,85.74
2017-12-20T08:08:09.863Z,85.67
2017-12-20T08:10:38.262Z,85.64
2017-12-20T08:13:06.591Z,85.54
2017-12-20T08:15:35.763Z,85.41
2017-12-20T08:18:04.406Z,85.33
2017-12-20T08:20:32.903Z,85.29
2017-12-20T08:23:01.300Z,85.15
2017-12-20T08:25:29.760Z,85.47
2017-12-20T08:27:58.180Z,85.40
2017-12-20T08:30:26.579Z,85.42
2017-12-20T08:32:54.904Z,85.26
2017-12-20T08:35:23.282Z,84.87
2017-12-20T08:37:51.619Z,84.56
2017-12-20T08:40:20.171Z,84.28
2017-12-20T08:42:49.334Z,84.29
2017-12-20T08:45:17.671Z,84.23
2017-12-20T08:47:46.116Z,83.68
2017-12-20T08:50:15.467Z,83.96
2017-12-20T08:52:43.854Z,83.69
2017-12-20T08:55:12.211Z,83.39
2017-12-20T08:57:40.687Z,83.00
2017-12-20T09:00:09.127Z,82.73
2017-12-20T09:02:37.591Z,82.36
2017-12-20T09:05:06.083Z,81.57
2017-12-20T09:07:34.523Z,81.21
2017-12-20T09:10:02.895Z,80.83
2017-12-20T09:12:31.230Z,80.83
2017-12-20T09:14:59.626Z,81.02
2017-12-20T09:17:28.742Z,80.71
2017-12-20T09:19:57.919Z,80.51
2017-12-20T09:22:26.315Z,80.20
2017-12-20T09:24:54.674Z,79.87
2017-12-20T09:27:23.829Z,79.58
2017-12-20T09:29:52.228Z,79.64
2017-12-20T09:32:20.579Z,79.66
2017-12-20T09:34:48.985Z,78.97
2017-12-20T09:37:17.498Z,78.12
2017-12-20T09:39:45.962Z,77.90
2017-12-20T09:42:14.402Z,78.21
2017-12-20T09:44:42.776Z,78.19
2017-12-20T09:47:11.102Z,77.67
2017-12-20T09:49:40.236Z,78.11
2017-12-20T09:52:08.599Z,78.00
2017-12-20T09:54:37.047Z,77.82
2017-12-20T09:57:05.413Z,77.35
2017-12-20T09:59:33.902Z,76.58
2017-12-20T10:02:02.262Z,76.78
2017-12-20T10:04:30.607Z,77.35
2017-12-20T10:06:58.998Z,77.14
2017-12-20T10:09:27.426Z,77.17
2017-12-20T10:11:56.634Z,77.05
2017-12-20T10:14:24.978Z,76.69
2017-12-20T10:16:53.354Z,76.77
2017-12-20T10:19:21.683Z,76.62
2017-12-20T10:21:50.010Z,76.34
2017-12-20T10:24:18.460Z,76.16
2017-12-20T10:26:46.816Z,76.22
2017-12-20T10:29:15.156Z,76.22
2017-12-20T10:31:43.638Z,76.55
2017-12-20T10:34:12.082Z,76.29
2017-12-20T10:36:40.628Z,76.06
2017-12-20T10:39:09.784Z,75.87
2017-12-20T10:41:38.154Z,76.85
2017-12-20T10:44:06.757Z,77.99
2017-12-20T10:46:35.261Z,77.40
2017-12-20T10:49:04.398Z,76.79
2017-12-20T10:51:32.741Z,76.10
2017-12-20T10:54:01.245Z,75.80
2017-12-20T10:56:30.469Z,75.17
2017-12-20T10:58:58.853Z,74.48
2017-12-20T11:01:27.226Z,74.43
2017-12-20T11:03:55.719Z,74.70
2017-12-20T11:06:24.086Z,74.65
2017-12-20T11:08:52.456Z,74.92
2017-12-20T11:11:20.852Z,75.27
2017-12-20T11:13:49.327Z,75.30
2017-12-20T11:16:17.834Z,74.70
2017-12-20T11:18:46.945Z,74.10
2017-12-20T11:21:16.130Z,74.42
2017-12-20T11:23:45.533Z,74.69
2017-12-20T11:26:14.843Z,74.75
2017-12-20T11:28:43.969Z,74.72
2017-12-20T11:31:12.381Z,74.62
2017-12-20T11:33:40.715Z,74.36
2017-12-20T11:36:09.080Z,74.26
2017-12-20T11:38:37.468Z,74.20
2017-12-20T11:41:05.812Z,74.23
2017-12-20T11:43:34.202Z,74.26
2017-12-20T11:46:03.385Z,74.11
2017-12-20T11:48:31.992Z,74.31
2017-12-20T11:51:00.489Z,74.18
2017-12-20T11:53:30.832Z,73.99
2017-12-20T11:55:59.665Z,74.56
2017-12-20T11:58:28.953Z,74.44
2017-12-20T12:00:57.377Z,74.39
2017-12-20T12:03:25.901Z,74.57
2017-12-20T12:05:54.449Z,74.68
2017-12-20T12:08:22.845Z,74.91
2017-12-20T12:10:51.233Z,74.36
2017-12-20T12:13:19.832Z,74.42
2017-12-20T12:15:48.272Z,75.08
2017-12-20T12:18:16.729Z,75.00
2017-12-20T12:20:45.300Z,75.53
2017-12-20T12:23:13.765Z,76.36
2017-12-20T12:25:44.609Z,75.57
2017-12-20T12:28:13.176Z,75.42
2017-12-20T12:30:41.628Z,75.09
2017-12-20T12:33:10.077Z,74.77
2017-12-20T12:35:38.595Z,75.52
2017-12-20T12:38:08.409Z,76.07
2017-12-20T12:40:37.648Z,77.18
2017-12-20T12:43:07.381Z,77.22
2017-12-20T12:45:35.780Z,76.99
2017-12-20T12:48:04.168Z,76.70
2017-12-20T12:50:32.565Z,76.85
2017-12-20T12:53:00.960Z,77.10
2017-12-20T12:55:30.076Z,76.80
2017-12-20T12:57:59.232Z,76.72
2017-12-20T13:00:27.612Z,76.89
2017-12-20T13:02:55.968Z,76.71
2017-12-20T13:05:24.368Z,76.99
2017-12-20T13:07:52.720Z,77.34
2017-12-20T13:10:21.084Z,77.24
2017-12-20T13:12:49.452Z,77.27
2017-12-20T13:15:17.828Z,77.31
2017-12-20T13:17:46.267Z,77.40
2017-12-20T13:20:14.652Z,77.42
2017-12-20T13:22:42.999Z,77.29
2017-12-20T13:25:11.380Z,77.32
2017-12-20T13:27:39.728Z,77.98
2017-12-20T13:30:08.128Z,78.89
2017-12-20T13:32:36.597Z,78.91
2017-12-20T13:35:05.672Z,78.82
2017-12-20T13:37:34.092Z,78.83
2017-12-20T13:40:02.552Z,78.89
2017-12-20T13:42:31.148Z,79.23
2017-12-20T13:44:59.676Z,79.14
2017-12-20T13:47:28.852Z,79.11
2017-12-20T13:49:57.268Z,79.10
2017-12-20T13:52:25.647Z,79.31
2017-12-20T13:54:53.999Z,79.62
2017-12-20T13:57:23.121Z,80.00
2017-12-20T13:59:51.509Z,80.30
2017-12-20T14:02:19.888Z,80.28
2017-12-20T14:04:48.315Z,80.80
2017-12-20T14:07:16.715Z,81.32
2017-12-20T14:09:46.484Z,81.31
2017-12-20T14:12:14.845Z,81.44
2017-12-20T14:14:43.240Z,81.06
2017-12-20T14:17:11.603Z,81.13
2017-12-20T14:19:40.351Z,81.71
2017-12-20T14:22:08.708Z,81.40
2017-12-20T14:24:37.051Z,80.88
2017-12-20T14:27:05.424Z,81.16
2017-12-20T14:29:33.764Z,81.55
2017-12-20T14:32:02.156Z,82.15
2017-12-20T14:34:30.508Z,82.12
2017-12-20T14:36:58.848Z,82.32
2017-12-20T14:39:27.235Z,82.78
2017-12-20T14:41:55.580Z,82.77
2017-12-20T14:44:24.850Z,82.69
2017-12-20T14:46:53.995Z,82.77
2017-12-20T14:49:22.384Z,82.46
2017-12-20T14:51:50.743Z,82.64
2017-12-20T14:54:19.175Z,82.80
2017-12-20T14:56:48.283Z,83.46
2017-12-20T14:59:17.430Z,83.65
2017-12-20T15:01:45.816Z,83.79
2017-12-20T15:04:14.251Z,83.42
2017-12-20T15:06:43.831Z,83.14
2017-12-20T15:09:12.939Z,84.14
2017-12-20T15:11:42.107Z,84.02
2017-12-20T15:14:10.451Z,83.83
2017-12-20T15:16:38.836Z,83.94
2017-12-20T15:19:07.251Z,84.60
2017-12-20T15:21:35.592Z,84.79
2017-12-20T15:24:03.943Z,84.41
2017-12-20T15:26:32.394Z,84.78
2017-12-20T15:29:00.798Z,85.26
2017-12-20T15:31:29.152Z,85.43
2017-12-20T15:33:57.631Z,85.48
2017-12-20T15:36:26.751Z,85.87
2017-12-20T15:38:55.127Z,86.38
2017-12-20T15:41:23.803Z,86.49
2017-12-20T15:43:52.268Z,86.45
2017-12-20T15:46:20.635Z,86.65
2017-12-20T15:48:49.357Z,86.79
2017-12-20T15:51:17.732Z,86.74
2017-12-20T15:53:46.169Z,86.26
2017-12-20T15:56:14.563Z,86.16
2017-12-20T15:58:42.944Z,85.77
2017-12-20T16:01:11.356Z,86.00
2017-12-20T16:03:39.823Z,85.86
2017-12-20T16:06:08.987Z,85.86
2017-12-20T16:08:37.366Z,85.81
2017-12-20T16:11:05.787Z,85.76
2017-12-20T16:13:34.216Z,85.64
2017-12-20T16:16:02.630Z,85.56
2017-12-20T16:18:31.027Z,85.48
2017-12-20T16:20:59.423Z,85.63
2017-12-20T16:23:27.812Z,85.58
2017-12-20T16:25:56.190Z,85.75
2017-12-20T16:28:24.584Z,86.25
2017-12-20T16:30:52.937Z,86.56
2017-12-20T16:33:23.111Z,86.88
2017-12-20T16:35:51.518Z,86.98
2017-12-20T16:38:19.929Z,87.00
2017-12-20T16:40:48.294Z,86.86
2017-12-20T16:43:18.946Z,86.79
2017-12-20T16:45:47.328Z,86.75
2017-12-20T16:48:15.693Z,87.06
2017-12-20T16:50:44.098Z,87.01
2017-12-20T16:53:12.522Z,87.16
2017-12-20T16:55:40.903Z,87.37
2017-12-20T16:58:09.307Z,87.30
2017-12-20T17:00:37.676Z,87.20
2017-12-20T17:03:06.483Z,87.11
2017-12-20T17:05:35.918Z,86.58
2017-12-20T17:08:05.130Z,86.53
2017-12-20T17:10:34.335Z,86.31
2017-12-20T17:13:02.756Z,86.97
2017-12-20T17:15:31.443Z,87.37
2017-12-20T17:17:59.811Z,87.61
2017-12-20T17:20:28.298Z,87.80
2017-12-20T17:22:57.476Z,88.08
2017-12-20T17:25:26.634Z,88.19
2017-12-20T17:27:55.804Z,88.16
2017-12-20T17:30:25.156Z,88.20
2017-12-20T17:32:58.295Z,87.89
2017-12-20T17:35:28.526Z,87.83
2017-12-20T17:38:01.552Z,87.94
2017-12-20T17:40:30.645Z,87.95
2017-12-20T17:42:59.111Z,88.16
2017-12-20T17:45:29.550Z,88.38
2017-12-20T17:47:58.970Z,88.36
2017-12-20T17:50:28.433Z,88.32
2017-12-20T17:52:57.709Z,88.26
2017-12-20T17:55:26.885Z,88.38
2017-12-20T17:57:55.315Z,88.22
2017-12-20T18:00:23.811Z,88.18
2017-12-20T18:02:52.298Z,88.12
2017-12-20T18:05:20.663Z,88.19
2017-12-20T18:07:50.196Z,88.09
2017-12-20T18:10:19.164Z,88.03
2017-12-20T18:12:48.366Z,87.88
2017-12-20T18:15:16.755Z,87.82
2017-12-20T18:17:45.534Z,87.87
2017-12-20T18:20:14.046Z,87.85
2017-12-20T18:22:42.414Z,87.80
2017-12-20T18:25:11.602Z,87.52
2017-12-20T18:27:40.026Z,87.41
2017-12-20T18:30:08.527Z,87.18
2017-12-20T18:32:37.001Z,87.05
2017-12-20T18:35:05.526Z,86.92
2017-12-20T18:37:35.286Z,87.00
2017-12-20T18:40:05.218Z,86.82
2017-12-20T18:42:35.473Z,86.70
2017-12-20T18:45:05.177Z,86.61
2017-12-20T18:47:37.181Z,86.59
2017-12-20T18:50:09.229Z,86.24
2017-12-20T18:52:39.488Z,86.04
2017-12-20T18:55:08.590Z,86.13
2017-12-20T18:57:37.690Z,86.07
2017-12-20T19:00:06.869Z,86.10
2017-12-20T19:02:35.478Z,86.04
2017-12-20T19:05:05.158Z,85.87
2017-12-20T19:07:33.779Z,85.82
2017-12-20T19:10:02.203Z,85.86
2017-12-20T19:12:30.635Z,85.72
2017-12-20T19:14:59.533Z,85.58
2017-12-20T19:17:30.016Z,85.33
2017-12-20T19:19:59.717Z,85.33
2017-12-20T19:22:29.015Z,85.07
2017-12-20T19:24:57.477Z,85.02
2017-12-20T19:27:26.069Z,84.94
2017-12-20T19:29:54.487Z,84.93
2017-12-20T19:32:23.707Z,84.86
2017-12-20T19:34:53.254Z,84.99
2017-12-20T19:37:23.373Z,84.97
2017-12-20T19:39:51.786Z,84.83
2017-12-20T19:42:21.773Z,84.96
2017-12-20T19:44:50.257Z,84.89
2017-12-20T19:47:18.601Z,84.85
2017-12-20T19:49:47.007Z,84.85
2017-12-20T19:52:15.389Z,84.80
2017-12-20T19:54:43.771Z,84.76
2017-12-20T19:57:12.245Z,84.87
2017-12-20T19:59:41.369Z,84.90
2017-12-20T20:02:14.613Z,84.76
2017-12-20T20:04:43.257Z,84.75
2017-12-20T20:07:11.681Z,84.55
2017-12-20T20:09:41.015Z,84.38
2017-12-20T20:12:11.093Z,84.22
2017-12-20T20:14:40.117Z,84.31
2017-12-20T20:17:09.221Z,84.56
2017-12-20T20:19:37.574Z,84.76
2017-12-20T20:22:06.277Z,84.79
2017-12-20T20:24:36.642Z,84.70
2017-12-20T20:27:05.810Z,84.71
2017-12-20T20:29:34.841Z,84.72
2017-12-20T20:32:05.922Z,84.75
2017-12-20T20:34:35.175Z,84.74
2017-12-20T20:37:04.473Z,84.79
2017-12-20T20:39:33.074Z,84.91
2017-12-20T20:42:02.729Z,85.00
2017-12-20T20:44:34.289Z,85.10
2017-12-20T20:47:03.753Z,85.09
2017-12-20T20:49:33.173Z,85.12
2017-12-20T20:52:02.660Z,85.22
2017-12-20T20:54:32.921Z,85.19
2017-12-20T20:57:02.318Z,85.22
2017-12-20T20:59:31.525Z,85.19
2017-12-20T21:01:59.939Z,85.03
2017-12-20T21:04:28.449Z,85.11
2017-12-20T21:06:59.293Z,84.98
2017-12-20T21:09:28.631Z,84.95
2017-12-20T21:11:59.212Z,84.90
2017-12-20T21:14:28.204Z,84.79
2017-12-20T21:16:56.716Z,84.72
2017-12-20T21:19:25.132Z,84.81
2017-12-20T21:21:53.600Z,84.91
2017-12-20T21:24:22.772Z,85.00
2017-12-20T21:26:52.580Z,85.12
2017-12-20T21:29:21.024Z,85.15
2017-12-20T21:31:49.672Z,85.11
2017-12-20T21:34:20.564Z,85.24
2017-12-20T21:36:48.948Z,85.33
2017-12-20T21:39:17.411Z,85.22
2017-12-20T21:41:45.927Z,85.34
2017-12-20T21:44:14.523Z,85.31
2017-12-20T21:46:43.358Z,85.42
2017-12-20T21:49:11.785Z,85.28
2017-12-20T21:51:41.096Z,85.14
2017-12-20T21:54:09.656Z,85.08
2017-12-20T21:56:39.960Z,85.09
2017-12-20T21:59:08.648Z,85.27
2017-12-20T22:01:38.012Z,85.30
2017-12-20T22:04:06.538Z,85.14
2017-12-20T22:06:36.911Z,85.34
2017-12-20T22:09:06.504Z,85.47
2017-12-20T22:11:38.132Z,85.52
2017-12-20T22:14:08.188Z,85.62
2017-12-20T22:16:36.816Z,85.65
2017-12-20T22:19:05.383Z,85.67
2017-12-20T22:21:33.768Z,85.72
2017-12-20T22:24:02.107Z,85.77
2017-12-20T22:26:31.291Z,85.82
2017-12-20T22:29:01.386Z,85.82
2017-12-20T22:31:29.769Z,85.67
2017-12-20T22:33:58.151Z,85.45
2017-12-20T22:36:26.516Z,85.59
2017-12-20T22:38:54.903Z,85.57
2017-12-20T22:41:23.376Z,85.37
2017-12-20T22:43:51.715Z,85.17
2017-12-20T22:46:20.071Z,85.00
2017-12-20T22:48:49.212Z,85.13
2017-12-20T22:51:17.563Z,85.14
2017-12-20T22:53:45.927Z,85.30
2017-12-20T22:56:14.312Z,85.40
2017-12-20T22:58:42.663Z,85.67
2017-12-20T23:01:11.063Z,85.67
2017-12-20T23:03:39.391Z,85.71
2017-12-20T23:06:07.783Z,85.74
2017-12-20T23:08:36.140Z,85.81
2017-12-20T23:11:04.491Z,85.78
2017-12-20T23:13:32.859Z,85.92
2017-12-20T23:16:01.203Z,85.81
2017-12-20T23:18:29.759Z,85.82
2017-12-20T23:20:58.132Z,85.66
2017-12-20T23:23:27.436Z,85.43
2017-12-20T23:25:55.794Z,85.51
2017-12-20T23:28:24.996Z,85.67
2017-12-20T23:30:53.369Z,85.87
2017-12-20T23:33:21.804Z,85.85
2017-12-20T23:35:50.143Z,85.67
2017-12-20T23:38:18.523Z,85.60
2017-12-20T23:40:46.911Z,85.75
2017-12-20T23:43:15.283Z,85.88
2017-12-20T23:45:43.623Z,85.86
2017-12-20T23:48:12.015Z,85.78
2017-12-20T23:50:40.387Z,85.90
2017-12-20T23:53:08.763Z,86.05
2017-12-20T23:55:37.135Z,86.18
2017-12-20T23:58:05.459Z,86.21
